CYUX

Hall Beach Airport

Hall Beach, Canada
METAR CYUX 191700Z 08005KT 10SM SCT003 BKN009 BKN047 OVC065 03/02 A2946 RMK SF3ST3SC1SC1 SLP980
Observed Flight Rules
Aug-19 @ 17:00 UTC (14 minutes ago) Instrument Flight Rules
Wind Visibility Clouds
80° at 5 knots 10 miles
  • Scattered at 300' AGL
  • Broken at 900' AGL
  • Broken at 4,700' AGL
  • Overcast at 6,500' AGL
Temperatures Readings
Current 3°C / 37°F
Dewpoint 2°C / 36°F
Humidity 93%
Altimeter 29.46" Hg
Pressure 998 hPa
Elevation 8
METAR CYUX 191700Z 08005KT 10SM SCT003 BKN009 BKN047 OVC065 03/02 A2946 RMK SF3ST3SC1SC1 SLP980
Observed Flight Rules
Aug-19 @ 17:00 UTC
(14 minutes ago)
IFR
Wind Visibility
80° at 5 knots 10 miles
Clouds
  • Scattered at 300' AGL
  • Broken at 900' AGL
  • Broken at 4,700' AGL
  • Overcast at 6,500' AGL
Temperature Dewpoint
3°C / 37°F 2°C / 36°F
Humidity Altimeter Pressure
93% 29.46" Hg 998 hPa